Silverton, Texas
Current Conditions -  °F | °C
As of 12:35 PM on Thursday 27 Nov 2014 (Local Time) from KPVW Reporting Station
Clear Clear  
Wind Chill: 51°   Ceiling: Unl
Heat Index: 51°   Visibility: 10mi
Dew Point: 27°   Wind: 13mph
Humidity: 39%   Direction: 220°SW
Pressure: 30.38"   Gusts: NA
Location:  34.47°N, 101.3°W
Report Text: KPVW 271835Z AUTO 22011KT 10SM CLR 11/M03 A3038 RMK AO2 T01071028
Loading
Personal Weather Stations






























Interactive Weather Map New forecast layout! Learn more

10-Day Weather Forecast

Advertisements
Track Severe Weather on mobile